sensor_id;sensor_type;location;lat;lon;timestamp;P1;durP1;ratioP1;P2;durP2;ratioP2
51764;SDS011;37835;53.256;6.456;2024-03-23T00:55:43;34.10;;;7.03;;
51764;SDS011;37835;53.256;6.456;2024-03-23T00:58:09;40.30;;;7.30;;
51764;SDS011;37835;53.256;6.456;2024-03-23T01:00:34;39.40;;;8.50;;
51764;SDS011;37835;53.256;6.456;2024-03-23T01:03:00;36.65;;;7.75;;
51764;SDS011;37835;53.256;6.456;2024-03-23T01:05:26;38.40;;;7.70;;
51764;SDS011;37835;53.256;6.456;2024-03-23T01:07:52;35.97;;;8.15;;
51764;SDS011;37835;53.256;6.456;2024-03-23T01:10:17;30.70;;;6.43;;
51764;SDS011;37835;53.256;6.456;2024-03-23T01:12:43;28.15;;;6.07;;
51764;SDS011;37835;53.256;6.456;2024-03-23T01:15:09;33.97;;;7.22;;
51764;SDS011;37835;53.256;6.456;2024-03-23T01:17:34;40.95;;;8.23;;
51764;SDS011;37835;53.256;6.456;2024-03-23T01:20:00;24.67;;;5.97;;
51764;SDS011;37835;53.256;6.456;2024-03-23T01:22:26;23.35;;;6.88;;
51764;SDS011;37835;53.256;6.456;2024-03-23T01:24:51;21.80;;;6.15;;
51764;SDS011;37835;53.256;6.456;2024-03-23T01:27:17;26.35;;;6.15;;
51764;SDS011;37835;53.256;6.456;2024-03-23T01:29:43;38.95;;;7.32;;
51764;SDS011;37835;53.256;6.456;2024-03-23T01:32:09;31.67;;;6.55;;
51764;SDS011;37835;53.256;6.456;2024-03-23T01:34:34;32.90;;;6.53;;
51764;SDS011;37835;53.256;6.456;2024-03-23T01:37:01;30.33;;;6.43;;
51764;SDS011;37835;53.256;6.456;2024-03-23T01:39:26;27.73;;;6.97;;
51764;SDS011;37835;53.256;6.456;2024-03-23T01:41:52;33.92;;;6.90;;
51764;SDS011;37835;53.256;6.456;2024-03-23T01:44:18;27.35;;;6.75;;
51764;SDS011;37835;53.256;6.456;2024-03-23T01:46:44;25.27;;;5.53;;
51764;SDS011;37835;53.256;6.456;2024-03-23T01:49:10;28.30;;;6.18;;
51764;SDS011;37835;53.256;6.456;2024-03-23T01:51:36;21.45;;;5.82;;
51764;SDS011;37835;53.256;6.456;2024-03-23T01:54:03;32.33;;;5.82;;
51764;SDS011;37835;53.256;6.456;2024-03-23T01:56:38;35.42;;;6.50;;
51764;SDS011;37835;53.256;6.456;2024-03-23T01:59:04;37.80;;;6.22;;
51764;SDS011;37835;53.256;6.456;2024-03-23T02:01:30;32.78;;;6.22;;
51764;SDS011;37835;53.256;6.456;2024-03-23T02:04:02;29.98;;;6.03;;
51764;SDS011;37835;53.256;6.456;2024-03-23T02:06:28;35.25;;;6.20;;
51764;SDS011;37835;53.256;6.456;2024-03-23T02:08:57;33.42;;;6.63;;
51764;SDS011;37835;53.256;6.456;2024-03-23T02:11:23;30.02;;;5.70;;
51764;SDS011;37835;53.256;6.456;2024-03-23T02:13:48;32.92;;;6.03;;
51764;SDS011;37835;53.256;6.456;2024-03-23T02:16:14;27.10;;;5.30;;
51764;SDS011;37835;53.256;6.456;2024-03-23T02:18:40;33.35;;;5.80;;
51764;SDS011;37835;53.256;6.456;2024-03-23T02:21:05;30.27;;;6.55;;
51764;SDS011;37835;53.256;6.456;2024-03-23T02:23:31;31.35;;;5.05;;
51764;SDS011;37835;53.256;6.456;2024-03-23T02:25:57;28.08;;;6.65;;
51764;SDS011;37835;53.256;6.456;2024-03-23T02:28:23;29.67;;;6.03;;
51764;SDS011;37835;53.256;6.456;2024-03-23T02:30:49;30.67;;;5.63;;
51764;SDS011;37835;53.256;6.456;2024-03-23T02:33:15;35.60;;;6.22;;
51764;SDS011;37835;53.256;6.456;2024-03-23T02:35:41;28.30;;;6.20;;
51764;SDS011;37835;53.256;6.456;2024-03-23T02:38:07;30.02;;;6.03;;
51764;SDS011;37835;53.256;6.456;2024-03-23T02:40:34;29.23;;;6.53;;
51764;SDS011;37835;53.256;6.456;2024-03-23T02:43:02;26.15;;;5.93;;
51764;SDS011;37835;53.256;6.456;2024-03-23T02:45:28;31.20;;;6.30;;
51764;SDS011;37835;53.256;6.456;2024-03-23T02:47:53;36.88;;;6.68;;
51764;SDS011;37835;53.256;6.456;2024-03-23T02:50:19;26.00;;;5.40;;
51764;SDS011;37835;53.256;6.456;2024-03-23T02:52:45;33.42;;;5.95;;
51764;SDS011;37835;53.256;6.456;2024-03-23T02:55:11;30.77;;;5.70;;
51764;SDS011;37835;53.256;6.456;2024-03-23T02:57:37;30.50;;;5.72;;
51764;SDS011;37835;53.256;6.456;2024-03-23T03:00:03;32.75;;;5.68;;
51764;SDS011;37835;53.256;6.456;2024-03-23T03:02:30;24.85;;;5.88;;
51764;SDS011;37835;53.256;6.456;2024-03-23T03:04:56;29.08;;;5.18;;
51764;SDS011;37835;53.256;6.456;2024-03-23T03:07:21;29.85;;;6.05;;
51764;SDS011;37835;53.256;6.456;2024-03-23T03:09:47;24.30;;;5.32;;
51764;SDS011;37835;53.256;6.456;2024-03-23T03:12:13;22.85;;;4.63;;
51764;SDS011;37835;53.256;6.456;2024-03-23T03:14:38;31.13;;;5.13;;
51764;SDS011;37835;53.256;6.456;2024-03-23T03:17:04;23.63;;;4.93;;
51764;SDS011;37835;53.256;6.456;2024-03-23T03:19:30;36.83;;;5.68;;
51764;SDS011;37835;53.256;6.456;2024-03-23T03:21:55;28.38;;;5.45;;
51764;SDS011;37835;53.256;6.456;2024-03-23T03:24:21;28.90;;;4.93;;
51764;SDS011;37835;53.256;6.456;2024-03-23T03:26:47;24.08;;;4.80;;
51764;SDS011;37835;53.256;6.456;2024-03-23T03:29:12;24.95;;;4.50;;
51764;SDS011;37835;53.256;6.456;2024-03-23T03:31:38;34.08;;;4.75;;
51764;SDS011;37835;53.256;6.456;2024-03-23T03:34:04;25.73;;;4.72;;
51764;SDS011;37835;53.256;6.456;2024-03-23T03:36:30;24.02;;;4.72;;
51764;SDS011;37835;53.256;6.456;2024-03-23T03:38:56;20.48;;;4.95;;
51764;SDS011;37835;53.256;6.456;2024-03-23T03:41:21;24.50;;;5.03;;
51764;SDS011;37835;53.256;6.456;2024-03-23T03:43:47;22.98;;;3.90;;
51764;SDS011;37835;53.256;6.456;2024-03-23T03:46:12;29.38;;;4.90;;
51764;SDS011;37835;53.256;6.456;2024-03-23T03:48:38;18.35;;;3.90;;
51764;SDS011;37835;53.256;6.456;2024-03-23T03:51:04;23.17;;;4.43;;
51764;SDS011;37835;53.256;6.456;2024-03-23T03:53:30;28.00;;;4.75;;
51764;SDS011;37835;53.256;6.456;2024-03-23T03:55:56;18.75;;;4.00;;
51764;SDS011;37835;53.256;6.456;2024-03-23T03:58:25;19.83;;;4.32;;
51764;SDS011;37835;53.256;6.456;2024-03-23T04:00:50;21.77;;;4.22;;
51764;SDS011;37835;53.256;6.456;2024-03-23T04:03:16;20.77;;;4.05;;
51764;SDS011;37835;53.256;6.456;2024-03-23T04:05:42;17.88;;;4.32;;
51764;SDS011;37835;53.256;6.456;2024-03-23T04:08:07;22.08;;;3.97;;
51764;SDS011;37835;53.256;6.456;2024-03-23T04:10:33;24.33;;;4.10;;
51764;SDS011;37835;53.256;6.456;2024-03-23T04:12:59;23.48;;;4.65;;
51764;SDS011;37835;53.256;6.456;2024-03-23T04:15:26;27.33;;;4.80;;
51764;SDS011;37835;53.256;6.456;2024-03-23T04:17:51;21.33;;;4.22;;
51764;SDS011;37835;53.256;6.456;2024-03-23T04:20:17;21.92;;;4.53;;
51764;SDS011;37835;53.256;6.456;2024-03-23T04:22:43;24.30;;;4.20;;
51764;SDS011;37835;53.256;6.456;2024-03-23T04:25:09;27.92;;;3.90;;
51764;SDS011;37835;53.256;6.456;2024-03-23T04:27:39;18.40;;;3.47;;
51764;SDS011;37835;53.256;6.456;2024-03-23T04:30:06;26.73;;;4.63;;
51764;SDS011;37835;53.256;6.456;2024-03-23T04:32:39;18.40;;;4.35;;
51764;SDS011;37835;53.256;6.456;2024-03-23T04:35:05;17.15;;;4.55;;
51764;SDS011;37835;53.256;6.456;2024-03-23T04:37:34;24.88;;;3.72;;
51764;SDS011;37835;53.256;6.456;2024-03-23T04:40:00;18.42;;;4.43;;
51764;SDS011;37835;53.256;6.456;2024-03-23T04:42:26;18.02;;;3.78;;
51764;SDS011;37835;53.256;6.456;2024-03-23T04:44:52;26.67;;;4.10;;
51764;SDS011;37835;53.256;6.456;2024-03-23T04:47:18;21.00;;;3.55;;
51764;SDS011;37835;53.256;6.456;2024-03-23T04:49:44;26.08;;;3.97;;
51764;SDS011;37835;53.256;6.456;2024-03-23T04:52:09;26.48;;;4.22;;
51764;SDS011;37835;53.256;6.456;2024-03-23T04:54:35;21.27;;;3.97;;
51764;SDS011;37835;53.256;6.456;2024-03-23T04:57:01;19.15;;;4.13;;
51764;SDS011;37835;53.256;6.456;2024-03-23T04:59:26;22.85;;;3.65;;
51764;SDS011;37835;53.256;6.456;2024-03-23T05:01:52;28.45;;;4.40;;
51764;SDS011;37835;53.256;6.456;2024-03-23T05:04:18;18.05;;;3.40;;
51764;SDS011;37835;53.256;6.456;2024-03-23T05:06:43;21.88;;;3.60;;
51764;SDS011;37835;53.256;6.456;2024-03-23T05:09:09;18.45;;;3.28;;
51764;SDS011;37835;53.256;6.456;2024-03-23T05:11:39;24.00;;;4.18;;
51764;SDS011;37835;53.256;6.456;2024-03-23T05:14:06;16.40;;;2.97;;
51764;SDS011;37835;53.256;6.456;2024-03-23T05:16:32;18.88;;;3.58;;
51764;SDS011;37835;53.256;6.456;2024-03-23T05:18:58;22.25;;;3.42;;
51764;SDS011;37835;53.256;6.456;2024-03-23T05:21:23;21.67;;;4.28;;
51764;SDS011;37835;53.256;6.456;2024-03-23T05:23:49;25.80;;;4.15;;
51764;SDS011;37835;53.256;6.456;2024-03-23T05:26:16;29.80;;;5.13;;
51764;SDS011;37835;53.256;6.456;2024-03-23T05:28:42;17.00;;;3.10;;
51764;SDS011;37835;53.256;6.456;2024-03-23T05:31:07;19.88;;;3.50;;
51764;SDS011;37835;53.256;6.456;2024-03-23T05:33:35;24.98;;;3.15;;
51764;SDS011;37835;53.256;6.456;2024-03-23T05:36:03;22.38;;;3.45;;
51764;SDS011;37835;53.256;6.456;2024-03-23T05:38:29;17.63;;;3.15;;
51764;SDS011;37835;53.256;6.456;2024-03-23T05:40:59;20.08;;;3.33;;
51764;SDS011;37835;53.256;6.456;2024-03-23T05:43:25;20.15;;;3.50;;
51764;SDS011;37835;53.256;6.456;2024-03-23T05:45:57;18.20;;;3.17;;
51764;SDS011;37835;53.256;6.456;2024-03-23T05:48:25;29.45;;;3.65;;
51764;SDS011;37835;53.256;6.456;2024-03-23T05:50:51;16.52;;;3.33;;
51764;SDS011;37835;53.256;6.456;2024-03-23T05:53:17;21.65;;;3.80;;
51764;SDS011;37835;53.256;6.456;2024-03-23T05:55:47;17.35;;;3.50;;
51764;SDS011;37835;53.256;6.456;2024-03-23T05:58:17;20.40;;;3.25;;
51764;SDS011;37835;53.256;6.456;2024-03-23T06:00:43;17.10;;;3.03;;
51764;SDS011;37835;53.256;6.456;2024-03-23T06:03:09;23.42;;;3.60;;
51764;SDS011;37835;53.256;6.456;2024-03-23T06:05:36;17.58;;;3.08;;
51764;SDS011;37835;53.256;6.456;2024-03-23T06:08:02;18.45;;;3.15;;
51764;SDS011;37835;53.256;6.456;2024-03-23T06:10:28;24.48;;;3.20;;
51764;SDS011;37835;53.256;6.456;2024-03-23T06:12:54;18.85;;;3.33;;
51764;SDS011;37835;53.256;6.456;2024-03-23T06:15:20;19.45;;;3.50;;
51764;SDS011;37835;53.256;6.456;2024-03-23T06:17:47;24.75;;;2.92;;
51764;SDS011;37835;53.256;6.456;2024-03-23T06:20:13;16.48;;;2.88;;
51764;SDS011;37835;53.256;6.456;2024-03-23T06:22:39;16.80;;;3.15;;
51764;SDS011;37835;53.256;6.456;2024-03-23T06:25:05;18.38;;;3.22;;
51764;SDS011;37835;53.256;6.456;2024-03-23T06:27:32;21.20;;;3.83;;
51764;SDS011;37835;53.256;6.456;2024-03-23T06:29:58;17.02;;;3.13;;
51764;SDS011;37835;53.256;6.456;2024-03-23T06:32:24;11.45;;;2.40;;
51764;SDS011;37835;53.256;6.456;2024-03-23T06:34:50;19.80;;;2.95;;
51764;SDS011;37835;53.256;6.456;2024-03-23T06:37:15;18.48;;;2.40;;
51764;SDS011;37835;53.256;6.456;2024-03-23T06:39:41;15.98;;;2.80;;
51764;SDS011;37835;53.256;6.456;2024-03-23T06:42:06;18.13;;;2.95;;
51764;SDS011;37835;53.256;6.456;2024-03-23T06:44:33;19.70;;;3.38;;
51764;SDS011;37835;53.256;6.456;2024-03-23T06:46:59;15.35;;;2.25;;
51764;SDS011;37835;53.256;6.456;2024-03-23T06:49:24;16.95;;;2.67;;
51764;SDS011;37835;53.256;6.456;2024-03-23T06:51:50;20.02;;;3.28;;
51764;SDS011;37835;53.256;6.456;2024-03-23T06:54:19;15.15;;;2.63;;
51764;SDS011;37835;53.256;6.456;2024-03-23T06:56:45;14.20;;;2.40;;
51764;SDS011;37835;53.256;6.456;2024-03-23T06:59:11;18.55;;;2.50;;
51764;SDS011;37835;53.256;6.456;2024-03-23T07:01:36;25.10;;;3.33;;
51764;SDS011;37835;53.256;6.456;2024-03-23T07:04:02;18.90;;;3.60;;
51764;SDS011;37835;53.256;6.456;2024-03-23T07:06:29;24.33;;;2.83;;
51764;SDS011;37835;53.256;6.456;2024-03-23T07:08:58;12.00;;;2.63;;
51764;SDS011;37835;53.256;6.456;2024-03-23T07:11:23;23.10;;;4.07;;
51764;SDS011;37835;53.256;6.456;2024-03-23T07:13:49;17.88;;;2.58;;
51764;SDS011;37835;53.256;6.456;2024-03-23T07:16:16;11.40;;;2.40;;
51764;SDS011;37835;53.256;6.456;2024-03-23T07:18:42;13.77;;;2.88;;
51764;SDS011;37835;53.256;6.456;2024-03-23T07:21:08;15.02;;;3.33;;
51764;SDS011;37835;53.256;6.456;2024-03-23T07:23:34;7.60;;;2.03;;
51764;SDS011;37835;53.256;6.456;2024-03-23T07:26:00;12.68;;;2.33;;
51764;SDS011;37835;53.256;6.456;2024-03-23T07:28:27;13.68;;;2.83;;
51764;SDS011;37835;53.256;6.456;2024-03-23T07:31:10;11.27;;;2.67;;
51764;SDS011;37835;53.256;6.456;2024-03-23T07:33:40;14.90;;;2.25;;
51764;SDS011;37835;53.256;6.456;2024-03-23T07:36:07;12.27;;;2.42;;
51764;SDS011;37835;53.256;6.456;2024-03-23T07:38:33;12.32;;;2.65;;
51764;SDS011;37835;53.256;6.456;2024-03-23T07:41:03;11.85;;;2.65;;
51764;SDS011;37835;53.256;6.456;2024-03-23T07:43:29;11.70;;;2.35;;
51764;SDS011;37835;53.256;6.456;2024-03-23T07:45:54;9.90;;;2.35;;
51764;SDS011;37835;53.256;6.456;2024-03-23T07:48:21;10.40;;;2.50;;
51764;SDS011;37835;53.256;6.456;2024-03-23T07:51:23;8.32;;;2.00;;
51764;SDS011;37835;53.256;6.456;2024-03-23T07:53:43;10.65;;;2.60;;
51764;SDS011;37835;53.256;6.456;2024-03-23T07:56:11;9.30;;;2.05;;
51764;SDS011;37835;53.256;6.456;2024-03-23T07:58:37;10.88;;;2.25;;
51764;SDS011;37835;53.256;6.456;2024-03-23T08:01:10;15.02;;;2.30;;
51764;SDS011;37835;53.256;6.456;2024-03-23T08:03:37;11.85;;;2.22;;
51764;SDS011;37835;53.256;6.456;2024-03-23T08:06:10;8.90;;;2.53;;
51764;SDS011;37835;53.256;6.456;2024-03-23T08:08:45;9.27;;;1.77;;
51764;SDS011;37835;53.256;6.456;2024-03-23T08:11:12;11.63;;;1.98;;
51764;SDS011;37835;53.256;6.456;2024-03-23T08:13:38;8.68;;;1.70;;
51764;SDS011;37835;53.256;6.456;2024-03-23T08:16:05;8.15;;;1.85;;
51764;SDS011;37835;53.256;6.456;2024-03-23T08:18:31;8.88;;;1.58;;
51764;SDS011;37835;53.256;6.456;2024-03-23T08:20:58;6.50;;;1.20;;
51764;SDS011;37835;53.256;6.456;2024-03-23T08:23:24;7.88;;;1.48;;
51764;SDS011;37835;53.256;6.456;2024-03-23T08:25:51;8.65;;;1.90;;
51764;SDS011;37835;53.256;6.456;2024-03-23T08:28:17;8.77;;;2.00;;
51764;SDS011;37835;53.256;6.456;2024-03-23T08:30:43;8.52;;;2.38;;
51764;SDS011;37835;53.256;6.456;2024-03-23T08:33:09;10.80;;;2.58;;
51764;SDS011;37835;53.256;6.456;2024-03-23T08:35:34;12.07;;;2.63;;
51764;SDS011;37835;53.256;6.456;2024-03-23T08:38:00;20.55;;;3.15;;
51764;SDS011;37835;53.256;6.456;2024-03-23T08:40:26;14.95;;;2.95;;
51764;SDS011;37835;53.256;6.456;2024-03-23T08:42:51;16.10;;;3.10;;
51764;SDS011;37835;53.256;6.456;2024-03-23T08:45:17;18.13;;;2.85;;
51764;SDS011;37835;53.256;6.456;2024-03-23T08:47:43;13.90;;;2.95;;
51764;SDS011;37835;53.256;6.456;2024-03-23T08:50:08;17.75;;;3.33;;
51764;SDS011;37835;53.256;6.456;2024-03-23T08:52:34;17.70;;;3.78;;
51764;SDS011;37835;53.256;6.456;2024-03-23T08:55:00;14.32;;;2.80;;
51764;SDS011;37835;53.256;6.456;2024-03-23T08:57:26;10.65;;;3.10;;
51764;SDS011;37835;53.256;6.456;2024-03-23T08:59:52;15.43;;;2.80;;
51764;SDS011;37835;53.256;6.456;2024-03-23T09:02:17;17.30;;;2.70;;
51764;SDS011;37835;53.256;6.456;2024-03-23T09:04:44;15.68;;;2.55;;
51764;SDS011;37835;53.256;6.456;2024-03-23T09:07:09;14.27;;;3.20;;
51764;SDS011;37835;53.256;6.456;2024-03-23T09:09:37;20.23;;;3.53;;
51764;SDS011;37835;53.256;6.456;2024-03-23T09:12:03;17.73;;;2.78;;
51764;SDS011;37835;53.256;6.456;2024-03-23T09:14:29;17.08;;;3.13;;
51764;SDS011;37835;53.256;6.456;2024-03-23T09:16:55;15.07;;;2.80;;
51764;SDS011;37835;53.256;6.456;2024-03-23T09:19:20;13.55;;;2.95;;
51764;SDS011;37835;53.256;6.456;2024-03-23T09:21:46;14.40;;;3.42;;
51764;SDS011;37835;53.256;6.456;2024-03-23T09:24:12;17.50;;;3.10;;
51764;SDS011;37835;53.256;6.456;2024-03-23T09:26:37;11.07;;;1.65;;
51764;SDS011;37835;53.256;6.456;2024-03-23T09:29:03;13.95;;;2.28;;
51764;SDS011;37835;53.256;6.456;2024-03-23T09:31:29;11.50;;;2.58;;
51764;SDS011;37835;53.256;6.456;2024-03-23T09:33:56;8.45;;;1.90;;
51764;SDS011;37835;53.256;6.456;2024-03-23T09:36:23;13.35;;;1.95;;
51764;SDS011;37835;53.256;6.456;2024-03-23T09:38:48;11.35;;;1.60;;
51764;SDS011;37835;53.256;6.456;2024-03-23T09:41:14;12.02;;;2.10;;
51764;SDS011;37835;53.256;6.456;2024-03-23T09:43:40;13.85;;;3.15;;
51764;SDS011;37835;53.256;6.456;2024-03-23T09:46:06;13.30;;;2.28;;
51764;SDS011;37835;53.256;6.456;2024-03-23T09:48:33;11.40;;;1.95;;
51764;SDS011;37835;53.256;6.456;2024-03-23T09:50:59;15.18;;;2.55;;
51764;SDS011;37835;53.256;6.456;2024-03-23T09:53:24;10.18;;;2.33;;
51764;SDS011;37835;53.256;6.456;2024-03-23T09:55:50;13.45;;;2.38;;
51764;SDS011;37835;53.256;6.456;2024-03-23T09:58:16;7.10;;;1.75;;
51764;SDS011;37835;53.256;6.456;2024-03-23T10:00:43;8.23;;;1.30;;
51764;SDS011;37835;53.256;6.456;2024-03-23T10:03:09;6.13;;;1.20;;
51764;SDS011;37835;53.256;6.456;2024-03-23T10:05:36;7.00;;;1.08;;
51764;SDS011;37835;53.256;6.456;2024-03-23T10:10:40;12.35;;;2.03;;
51764;SDS011;37835;53.256;6.456;2024-03-23T10:13:06;17.90;;;2.08;;
51764;SDS011;37835;53.256;6.456;2024-03-23T10:15:35;10.55;;;2.08;;
51764;SDS011;37835;53.256;6.456;2024-03-23T10:18:17;14.65;;;2.03;;
51764;SDS011;37835;53.256;6.456;2024-03-23T10:21:29;12.25;;;2.00;;
51764;SDS011;37835;53.256;6.456;2024-03-23T10:23:30;11.68;;;1.90;;
51764;SDS011;37835;53.256;6.456;2024-03-23T10:26:12;14.68;;;2.45;;
51764;SDS011;37835;53.256;6.456;2024-03-23T10:28:50;12.40;;;2.47;;
51764;SDS011;37835;53.256;6.456;2024-03-23T10:31:16;13.45;;;2.50;;
51764;SDS011;37835;53.256;6.456;2024-03-23T10:33:46;13.07;;;2.63;;
51764;SDS011;37835;53.256;6.456;2024-03-23T10:36:12;16.88;;;2.90;;
51764;SDS011;37835;53.256;6.456;2024-03-23T10:38:42;16.17;;;2.45;;
51764;SDS011;37835;53.256;6.456;2024-03-23T10:41:10;10.13;;;1.75;;
51764;SDS011;37835;53.256;6.456;2024-03-23T10:43:36;10.98;;;2.13;;
51764;SDS011;37835;53.256;6.456;2024-03-23T10:46:03;9.55;;;1.98;;
51764;SDS011;37835;53.256;6.456;2024-03-23T10:48:29;12.15;;;1.50;;
51764;SDS011;37835;53.256;6.456;2024-03-23T10:50:55;8.80;;;1.40;;
51764;SDS011;37835;53.256;6.456;2024-03-23T10:53:25;8.50;;;2.15;;
51764;SDS011;37835;53.256;6.456;2024-03-23T10:55:51;5.00;;;1.00;;
51764;SDS011;37835;53.256;6.456;2024-03-23T10:58:23;8.10;;;1.55;;
51764;SDS011;37835;53.256;6.456;2024-03-23T11:01:11;11.15;;;1.40;;
51764;SDS011;37835;53.256;6.456;2024-03-23T11:03:38;12.65;;;2.00;;
51764;SDS011;37835;53.256;6.456;2024-03-23T11:06:05;8.82;;;1.63;;
51764;SDS011;37835;53.256;6.456;2024-03-23T11:08:36;9.77;;;1.55;;
51764;SDS011;37835;53.256;6.456;2024-03-23T11:11:13;8.82;;;2.05;;
51764;SDS011;37835;53.256;6.456;2024-03-23T11:13:39;12.43;;;1.85;;
51764;SDS011;37835;53.256;6.456;2024-03-23T11:16:14;11.68;;;1.80;;
51764;SDS011;37835;53.256;6.456;2024-03-23T11:18:55;9.27;;;1.63;;
51764;SDS011;37835;53.256;6.456;2024-03-23T11:22:15;11.95;;;1.88;;
51764;SDS011;37835;53.256;6.456;2024-03-23T11:25:15;12.88;;;1.77;;
51764;SDS011;37835;53.256;6.456;2024-03-23T11:27:42;12.57;;;2.08;;
51764;SDS011;37835;53.256;6.456;2024-03-23T11:32:38;11.90;;;2.30;;
51764;SDS011;37835;53.256;6.456;2024-03-23T11:35:04;9.13;;;1.88;;
51764;SDS011;37835;53.256;6.456;2024-03-23T11:37:30;15.93;;;2.28;;
51764;SDS011;37835;53.256;6.456;2024-03-23T11:39:55;13.05;;;2.08;;
51764;SDS011;37835;53.256;6.456;2024-03-23T11:42:21;12.40;;;2.47;;
51764;SDS011;37835;53.256;6.456;2024-03-23T11:44:46;8.82;;;2.03;;
51764;SDS011;37835;53.256;6.456;2024-03-23T11:47:12;11.88;;;2.00;;
51764;SDS011;37835;53.256;6.456;2024-03-23T11:49:38;17.38;;;3.28;;
51764;SDS011;37835;53.256;6.456;2024-03-23T11:52:06;9.20;;;2.20;;
51764;SDS011;37835;53.256;6.456;2024-03-23T11:54:32;12.77;;;2.08;;
51764;SDS011;37835;53.256;6.456;2024-03-23T11:56:58;7.88;;;2.08;;
51764;SDS011;37835;53.256;6.456;2024-03-23T11:59:35;8.88;;;2.63;;
51764;SDS011;37835;53.256;6.456;2024-03-23T12:02:11;12.45;;;2.40;;
51764;SDS011;37835;53.256;6.456;2024-03-23T12:04:41;13.88;;;2.05;;
51764;SDS011;37835;53.256;6.456;2024-03-23T12:07:11;8.90;;;1.30;;
51764;SDS011;37835;53.256;6.456;2024-03-23T12:09:38;11.00;;;2.03;;
51764;SDS011;37835;53.256;6.456;2024-03-23T12:12:12;17.70;;;2.50;;
51764;SDS011;37835;53.256;6.456;2024-03-23T12:14:40;10.52;;;2.30;;
51764;SDS011;37835;53.256;6.456;2024-03-23T12:19:35;9.57;;;1.80;;
51764;SDS011;37835;53.256;6.456;2024-03-23T12:22:02;11.20;;;1.92;;
51764;SDS011;37835;53.256;6.456;2024-03-23T12:24:29;9.65;;;1.70;;
51764;SDS011;37835;53.256;6.456;2024-03-23T12:26:55;16.38;;;2.38;;
51764;SDS011;37835;53.256;6.456;2024-03-23T12:29:25;11.82;;;2.25;;
51764;SDS011;37835;53.256;6.456;2024-03-23T12:31:52;9.90;;;1.75;;
51764;SDS011;37835;53.256;6.456;2024-03-23T12:34:18;6.45;;;1.40;;
51764;SDS011;37835;53.256;6.456;2024-03-23T12:36:43;6.75;;;1.30;;
51764;SDS011;37835;53.256;6.456;2024-03-23T12:39:09;8.55;;;1.60;;
51764;SDS011;37835;53.256;6.456;2024-03-23T12:41:35;7.40;;;2.00;;
51764;SDS011;37835;53.256;6.456;2024-03-23T12:44:00;9.73;;;2.10;;
51764;SDS011;37835;53.256;6.456;2024-03-23T12:46:26;10.43;;;2.05;;
51764;SDS011;37835;53.256;6.456;2024-03-23T12:48:51;14.93;;;2.63;;
51764;SDS011;37835;53.256;6.456;2024-03-23T12:51:17;8.50;;;1.85;;
51764;SDS011;37835;53.256;6.456;2024-03-23T12:53:43;11.25;;;2.00;;
51764;SDS011;37835;53.256;6.456;2024-03-23T12:56:11;6.53;;;1.45;;
51764;SDS011;37835;53.256;6.456;2024-03-23T12:58:37;11.90;;;1.50;;
51764;SDS011;37835;53.256;6.456;2024-03-23T13:01:03;7.90;;;1.52;;
51764;SDS011;37835;53.256;6.456;2024-03-23T13:03:28;8.13;;;1.50;;
51764;SDS011;37835;53.256;6.456;2024-03-23T13:05:54;15.65;;;2.08;;
51764;SDS011;37835;53.256;6.456;2024-03-23T13:08:19;12.00;;;2.13;;
51764;SDS011;37835;53.256;6.456;2024-03-23T13:10:45;14.82;;;3.17;;
51764;SDS011;37835;53.256;6.456;2024-03-23T13:13:12;17.02;;;3.38;;
51764;SDS011;37835;53.256;6.456;2024-03-23T13:15:37;17.00;;;2.95;;
51764;SDS011;37835;53.256;6.456;2024-03-23T13:18:03;10.30;;;2.22;;
51764;SDS011;37835;53.256;6.456;2024-03-23T13:20:29;13.50;;;2.42;;
51764;SDS011;37835;53.256;6.456;2024-03-23T13:22:54;12.00;;;2.53;;
51764;SDS011;37835;53.256;6.456;2024-03-23T13:25:20;14.25;;;2.60;;
51764;SDS011;37835;53.256;6.456;2024-03-23T13:27:46;11.35;;;2.17;;
51764;SDS011;37835;53.256;6.456;2024-03-23T13:30:12;15.45;;;2.35;;
51764;SDS011;37835;53.256;6.456;2024-03-23T13:32:38;12.73;;;2.53;;
51764;SDS011;37835;53.256;6.456;2024-03-23T13:35:04;12.75;;;2.03;;
51764;SDS011;37835;53.256;6.456;2024-03-23T13:37:31;7.25;;;1.58;;
51764;SDS011;37835;53.256;6.456;2024-03-23T13:39:57;6.07;;;1.02;;
51764;SDS011;37835;53.256;6.456;2024-03-23T13:42:22;6.30;;;1.35;;
51764;SDS011;37835;53.256;6.456;2024-03-23T13:44:51;6.38;;;1.52;;
51764;SDS011;37835;53.256;6.456;2024-03-23T13:47:16;9.00;;;2.15;;
51764;SDS011;37835;53.256;6.456;2024-03-23T13:49:42;13.93;;;2.45;;
51764;SDS011;37835;53.256;6.456;2024-03-23T13:52:08;9.25;;;2.35;;
51764;SDS011;37835;53.256;6.456;2024-03-23T13:54:33;17.73;;;2.30;;
51764;SDS011;37835;53.256;6.456;2024-03-23T13:56:59;16.05;;;2.33;;
51764;SDS011;37835;53.256;6.456;2024-03-23T13:59:25;7.90;;;2.05;;
51764;SDS011;37835;53.256;6.456;2024-03-23T14:01:51;6.88;;;1.67;;
51764;SDS011;37835;53.256;6.456;2024-03-23T14:04:17;8.40;;;1.20;;
51764;SDS011;37835;53.256;6.456;2024-03-23T14:06:44;9.07;;;1.70;;
51764;SDS011;37835;53.256;6.456;2024-03-23T14:09:13;14.23;;;2.70;;
51764;SDS011;37835;53.256;6.456;2024-03-23T14:11:40;12.77;;;2.20;;
51764;SDS011;37835;53.256;6.456;2024-03-23T14:14:08;11.93;;;1.95;;
51764;SDS011;37835;53.256;6.456;2024-03-23T14:16:34;16.75;;;1.95;;
51764;SDS011;37835;53.256;6.456;2024-03-23T14:19:00;8.70;;;1.75;;
51764;SDS011;37835;53.256;6.456;2024-03-23T14:21:26;12.38;;;1.80;;
51764;SDS011;37835;53.256;6.456;2024-03-23T14:23:54;9.65;;;1.75;;
51764;SDS011;37835;53.256;6.456;2024-03-23T14:26:20;14.13;;;1.98;;
51764;SDS011;37835;53.256;6.456;2024-03-23T14:28:45;11.57;;;2.22;;
51764;SDS011;37835;53.256;6.456;2024-03-23T14:31:11;18.75;;;3.40;;
51764;SDS011;37835;53.256;6.456;2024-03-23T14:33:37;10.32;;;1.75;;
51764;SDS011;37835;53.256;6.456;2024-03-23T14:36:06;12.50;;;2.10;;
51764;SDS011;37835;53.256;6.456;2024-03-23T14:38:32;10.75;;;1.73;;
51764;SDS011;37835;53.256;6.456;2024-03-23T14:41:01;14.38;;;2.15;;
51764;SDS011;37835;53.256;6.456;2024-03-23T14:43:28;16.42;;;2.60;;
51764;SDS011;37835;53.256;6.456;2024-03-23T14:46:10;18.15;;;3.40;;
51764;SDS011;37835;53.256;6.456;2024-03-23T14:48:41;16.95;;;2.75;;
51764;SDS011;37835;53.256;6.456;2024-03-23T14:51:08;14.98;;;2.55;;
51764;SDS011;37835;53.256;6.456;2024-03-23T14:53:38;14.35;;;2.90;;
51764;SDS011;37835;53.256;6.456;2024-03-23T14:56:05;12.70;;;2.60;;
51764;SDS011;37835;53.256;6.456;2024-03-23T14:58:32;14.40;;;2.60;;
51764;SDS011;37835;53.256;6.456;2024-03-23T15:01:00;16.33;;;2.22;;
51764;SDS011;37835;53.256;6.456;2024-03-23T15:03:27;11.32;;;2.22;;
51764;SDS011;37835;53.256;6.456;2024-03-23T15:05:56;17.33;;;2.80;;
51764;SDS011;37835;53.256;6.456;2024-03-23T15:08:22;14.70;;;2.70;;
51764;SDS011;37835;53.256;6.456;2024-03-23T15:10:48;13.73;;;2.40;;
51764;SDS011;37835;53.256;6.456;2024-03-23T15:13:15;13.32;;;2.00;;
51764;SDS011;37835;53.256;6.456;2024-03-23T15:15:41;15.88;;;2.30;;
51764;SDS011;37835;53.256;6.456;2024-03-23T15:18:09;12.13;;;2.42;;
51764;SDS011;37835;53.256;6.456;2024-03-23T15:20:40;15.10;;;2.58;;
51764;SDS011;37835;53.256;6.456;2024-03-23T15:23:13;12.00;;;2.10;;
51764;SDS011;37835;53.256;6.456;2024-03-23T15:25:38;18.85;;;2.33;;
51764;SDS011;37835;53.256;6.456;2024-03-23T15:28:04;13.48;;;2.45;;
51764;SDS011;37835;53.256;6.456;2024-03-23T15:30:30;20.65;;;2.35;;
51764;SDS011;37835;53.256;6.456;2024-03-23T15:32:56;14.60;;;2.85;;
51764;SDS011;37835;53.256;6.456;2024-03-23T15:35:22;14.45;;;2.22;;
51764;SDS011;37835;53.256;6.456;2024-03-23T15:37:48;14.80;;;2.55;;